createdAt,value
2023-01-13T00:00:31.901Z,17.70
2023-01-13T00:03:04.399Z,14.10
2023-01-13T00:05:36.598Z,19.20
2023-01-13T00:08:11.111Z,14.30
2023-01-13T00:10:43.070Z,12.50
2023-01-13T00:13:16.026Z,13.10
2023-01-13T00:15:56.971Z,13.10
2023-01-13T00:18:29.987Z,13.30
2023-01-13T00:23:35.918Z,12.90
2023-01-13T00:26:11.777Z,15.30
2023-01-13T00:28:43.747Z,10.90
2023-01-13T00:31:17.390Z,12.20
2023-01-13T00:33:51.405Z,13.20
2023-01-13T00:36:24.173Z,12.50
2023-01-13T00:38:56.358Z,12.20
2023-01-13T00:41:49.458Z,11.30
2023-01-13T00:44:21.673Z,13.10
2023-01-13T00:46:53.584Z,13.40
2023-01-13T00:49:25.847Z,11.60
2023-01-13T00:51:58.008Z,11.70
2023-01-13T00:54:30.557Z,12.40
2023-01-13T00:57:02.667Z,12.00
2023-01-13T00:59:35.948Z,14.30
2023-01-13T01:02:08.033Z,12.50
2023-01-13T01:04:41.689Z,14.10
2023-01-13T01:07:13.989Z,11.40
2023-01-13T01:09:46.625Z,12.50
2023-01-13T01:12:18.873Z,14.40
2023-01-13T01:14:51.164Z,12.70
2023-01-13T01:17:23.421Z,16.20
2023-01-13T01:19:55.831Z,9.10
2023-01-13T01:22:28.112Z,9.50
2023-01-13T01:25:00.914Z,9.50
2023-01-13T01:27:33.437Z,10.50
2023-01-13T01:30:05.916Z,8.70
2023-01-13T01:32:38.959Z,7.80
2023-01-13T01:35:13.660Z,10.70
2023-01-13T01:37:46.165Z,8.90
2023-01-13T01:40:18.726Z,11.40
2023-01-13T01:43:07.851Z,7.80
2023-01-13T01:45:40.946Z,10.10
2023-01-13T01:48:15.507Z,9.00
2023-01-13T01:50:49.460Z,11.60
2023-01-13T01:53:30.654Z,8.80
2023-01-13T01:56:04.666Z,10.90
2023-01-13T01:58:45.861Z,12.70
2023-01-13T02:01:19.354Z,12.80
2023-01-13T02:03:59.878Z,11.60
2023-01-13T02:06:33.452Z,14.40
2023-01-13T02:09:06.239Z,12.10
2023-01-13T02:11:57.011Z,10.00
2023-01-13T02:14:31.418Z,12.90
2023-01-13T02:17:28.291Z,14.30
2023-01-13T02:20:37.851Z,14.20
2023-01-13T02:24:13.830Z,11.40
2023-01-13T02:27:26.336Z,13.70
2023-01-13T02:30:26.355Z,14.00
2023-01-13T02:33:10.651Z,11.60
2023-01-13T02:35:51.371Z,15.60
2023-01-13T02:38:40.021Z,15.70
2023-01-13T02:41:35.186Z,15.00
2023-01-13T02:44:08.388Z,18.20
2023-01-13T02:46:47.362Z,15.10
2023-01-13T02:49:26.775Z,13.60
2023-01-13T02:52:06.805Z,17.20
2023-01-13T02:54:43.752Z,11.80
2023-01-13T02:57:19.148Z,14.80
2023-01-13T02:59:52.189Z,11.00
2023-01-13T03:02:27.044Z,12.30
2023-01-13T03:05:00.664Z,11.20
2023-01-13T03:07:58.427Z,12.00
2023-01-13T03:10:52.268Z,10.40
2023-01-13T03:13:39.510Z,8.90
2023-01-13T03:16:24.843Z,11.90
2023-01-13T03:19:09.682Z,8.20
2023-01-13T03:21:48.928Z,8.60
2023-01-13T03:24:27.745Z,7.70
2023-01-13T03:27:06.045Z,9.70
2023-01-13T03:29:42.805Z,12.00
2023-01-13T03:32:19.932Z,10.50
2023-01-13T03:34:56.016Z,7.00
2023-01-13T03:37:33.009Z,9.80
2023-01-13T03:40:10.319Z,8.00
2023-01-13T03:43:06.617Z,10.00
2023-01-13T03:45:41.587Z,8.20
2023-01-13T03:48:18.094Z,7.80
2023-01-13T03:50:55.113Z,8.80
2023-01-13T03:53:30.424Z,7.40
2023-01-13T03:56:09.166Z,8.30
2023-01-13T03:58:44.636Z,8.60
2023-01-13T04:01:21.636Z,6.80
2023-01-13T04:03:59.013Z,7.00
2023-01-13T04:06:38.466Z,6.30
2023-01-13T04:09:19.665Z,7.40
2023-01-13T04:11:56.795Z,7.40
2023-01-13T04:14:30.875Z,8.80
2023-01-13T04:17:03.292Z,9.80
2023-01-13T04:19:36.102Z,6.20
2023-01-13T04:22:08.468Z,7.40
2023-01-13T04:24:41.276Z,8.20
2023-01-13T04:27:13.503Z,7.70
2023-01-13T04:29:45.489Z,7.80
2023-01-13T04:32:19.066Z,8.60
2023-01-13T04:34:51.326Z,7.90
2023-01-13T04:37:23.299Z,7.50
2023-01-13T04:39:55.499Z,6.80
2023-01-13T04:42:28.085Z,10.80
2023-01-13T04:45:00.091Z,8.20
2023-01-13T04:47:32.648Z,7.80
2023-01-13T04:50:04.860Z,6.10
2023-01-13T04:52:38.025Z,7.40
2023-01-13T04:55:11.987Z,9.00
2023-01-13T04:57:44.486Z,8.80
2023-01-13T05:00:19.508Z,7.20
2023-01-13T05:02:52.902Z,7.50
2023-01-13T05:05:25.812Z,8.40
2023-01-13T05:07:59.392Z,6.80
2023-01-13T05:10:32.028Z,9.20
2023-01-13T05:13:22.121Z,7.20
2023-01-13T05:16:18.306Z,6.40
2023-01-13T05:18:52.255Z,7.70
2023-01-13T05:21:42.390Z,9.20
2023-01-13T05:24:44.776Z,7.10
2023-01-13T05:27:20.076Z,7.10
2023-01-13T05:29:53.057Z,6.40
2023-01-13T05:32:28.174Z,8.70
2023-01-13T05:35:01.963Z,6.70
2023-01-13T05:40:21.925Z,7.50
2023-01-13T05:43:22.046Z,4.90
2023-01-13T05:45:58.261Z,6.80
2023-01-13T05:48:33.896Z,6.30
2023-01-13T05:51:07.920Z,5.40
2023-01-13T05:53:41.058Z,6.90
2023-01-13T05:56:14.168Z,5.00
2023-01-13T05:58:46.430Z,7.30
2023-01-13T06:01:18.793Z,5.60
2023-01-13T06:03:51.127Z,5.60
2023-01-13T06:06:23.414Z,5.90
2023-01-13T06:08:55.486Z,5.60
2023-01-13T06:11:29.184Z,6.40
2023-01-13T06:14:04.615Z,5.60
2023-01-13T06:16:36.880Z,6.00
2023-01-13T06:19:14.608Z,4.70
2023-01-13T06:21:46.943Z,5.50
2023-01-13T06:24:19.139Z,8.20
2023-01-13T06:26:52.058Z,5.10
2023-01-13T06:29:24.054Z,8.10
2023-01-13T06:31:57.747Z,7.50
2023-01-13T06:37:00.798Z,7.50
2023-01-13T06:39:33.927Z,6.50
2023-01-13T06:42:23.929Z,8.10
2023-01-13T06:44:56.021Z,6.90
2023-01-13T06:47:28.340Z,8.40
2023-01-13T06:50:00.731Z,10.00
2023-01-13T06:52:33.967Z,8.40
2023-01-13T06:55:07.048Z,7.40
2023-01-13T06:57:51.528Z,9.10
2023-01-13T07:00:26.729Z,9.00
2023-01-13T07:03:08.938Z,6.70
2023-01-13T07:05:41.927Z,7.80
2023-01-13T07:08:14.087Z,5.60
2023-01-13T07:10:46.322Z,5.10
2023-01-13T07:13:39.161Z,7.20
2023-01-13T07:16:12.146Z,6.70
2023-01-13T07:18:44.468Z,7.60
2023-01-13T07:21:19.510Z,6.60
2023-01-13T07:23:52.094Z,7.70
2023-01-13T07:26:24.280Z,8.80
2023-01-13T07:28:56.707Z,6.70
2023-01-13T07:31:28.898Z,7.40
2023-01-13T07:34:01.369Z,7.00
2023-01-13T07:36:33.628Z,8.10
2023-01-13T07:39:08.057Z,9.50
2023-01-13T07:41:57.603Z,7.40
2023-01-13T07:44:29.608Z,9.60
2023-01-13T07:47:01.690Z,6.70
2023-01-13T07:49:33.764Z,8.30
2023-01-13T07:52:06.146Z,8.90
2023-01-13T07:54:40.873Z,7.00
2023-01-13T07:57:13.654Z,6.70
2023-01-13T07:59:45.809Z,6.40
2023-01-13T08:02:18.210Z,8.10
2023-01-13T08:04:50.551Z,6.70
2023-01-13T08:07:24.861Z,8.00
2023-01-13T08:10:01.101Z,7.30
2023-01-13T08:12:57.038Z,8.20
2023-01-13T08:15:30.385Z,7.00
2023-01-13T08:18:02.546Z,8.60
2023-01-13T08:20:35.005Z,7.20
2023-01-13T08:23:07.568Z,8.80
2023-01-13T08:25:39.975Z,7.80
2023-01-13T08:28:12.571Z,8.10
2023-01-13T08:30:44.913Z,8.50
2023-01-13T08:33:17.943Z,9.10
2023-01-13T08:35:53.125Z,7.80
2023-01-13T08:38:28.520Z,8.30
2023-01-13T08:41:00.759Z,8.00
2023-01-13T08:43:33.279Z,8.50
2023-01-13T08:46:06.697Z,7.40
2023-01-13T08:48:39.285Z,10.10
2023-01-13T08:51:12.639Z,10.70
2023-01-13T08:53:44.774Z,7.10
2023-01-13T08:56:17.279Z,11.00
2023-01-13T08:58:49.777Z,8.10
2023-01-13T09:01:24.872Z,8.70
2023-01-13T09:03:57.690Z,8.10
2023-01-13T09:06:29.767Z,5.50
2023-01-13T09:09:02.865Z,8.00
2023-01-13T09:11:57.075Z,7.10
2023-01-13T09:17:01.218Z,6.30
2023-01-13T09:19:33.576Z,5.70
2023-01-13T09:22:05.943Z,8.60
2023-01-13T09:24:37.955Z,9.00
2023-01-13T09:27:10.393Z,7.90
2023-01-13T09:29:42.772Z,9.00
2023-01-13T09:32:17.074Z,5.90
2023-01-13T09:35:02.056Z,7.40
2023-01-13T09:37:35.694Z,8.60
2023-01-13T09:40:11.398Z,6.10
2023-01-13T09:43:06.121Z,8.40
2023-01-13T09:45:45.789Z,6.60
2023-01-13T09:48:22.478Z,9.10
2023-01-13T09:51:04.639Z,7.40
2023-01-13T09:53:39.889Z,9.40
2023-01-13T09:56:13.563Z,7.70
2023-01-13T09:58:46.594Z,7.20
2023-01-13T10:01:28.272Z,5.90
2023-01-13T10:04:04.170Z,6.00
2023-01-13T10:06:40.408Z,8.20
2023-01-13T10:09:20.211Z,6.80
2023-01-13T10:12:13.848Z,8.60
2023-01-13T10:14:53.498Z,7.70
2023-01-13T10:17:31.962Z,8.40
2023-01-13T10:20:18.459Z,8.40
2023-01-13T10:23:02.217Z,7.40
2023-01-13T10:25:55.013Z,9.50
2023-01-13T10:28:27.889Z,8.10
2023-01-13T10:31:00.148Z,8.10
2023-01-13T10:33:32.755Z,6.90
2023-01-13T10:36:14.356Z,11.10
2023-01-13T10:38:48.374Z,6.70
2023-01-13T10:41:29.257Z,8.50
2023-01-13T10:44:08.424Z,7.10
2023-01-13T10:46:55.411Z,7.00
2023-01-13T10:49:34.325Z,9.10
2023-01-13T10:52:29.074Z,5.90
2023-01-13T10:55:01.517Z,6.70
2023-01-13T10:57:39.732Z,11.00
2023-01-13T11:00:29.923Z,6.50
2023-01-13T11:03:18.616Z,6.20
2023-01-13T11:05:55.682Z,6.90
2023-01-13T11:08:30.252Z,8.50
2023-01-13T11:11:02.981Z,6.80
2023-01-13T11:13:59.370Z,7.40
2023-01-13T11:16:31.780Z,8.70
2023-01-13T11:19:13.687Z,7.70
2023-01-13T11:21:54.823Z,6.80
2023-01-13T11:24:37.346Z,4.60
2023-01-13T11:27:17.876Z,6.70
2023-01-13T11:30:10.312Z,6.70
2023-01-13T11:32:55.387Z,7.30
2023-01-13T11:35:28.740Z,4.80
2023-01-13T11:38:06.159Z,7.50
2023-01-13T11:40:43.127Z,5.90
2023-01-13T11:43:25.131Z,7.10
2023-01-13T11:46:00.724Z,4.90
2023-01-13T11:48:37.728Z,4.90
2023-01-13T11:51:24.580Z,4.70
2023-01-13T11:54:11.271Z,4.30
2023-01-13T11:57:05.504Z,4.70
2023-01-13T11:59:56.610Z,5.00
2023-01-13T12:02:46.844Z,5.20
2023-01-13T12:05:26.844Z,7.10
2023-01-13T12:08:12.819Z,6.40
2023-01-13T12:10:56.847Z,5.50
2023-01-13T12:13:42.128Z,5.00
2023-01-13T12:16:27.393Z,4.00
2023-01-13T12:19:20.331Z,4.60
2023-01-13T12:22:05.043Z,5.40
2023-01-13T12:24:44.566Z,5.80
2023-01-13T12:27:24.357Z,4.20
2023-01-13T12:30:00.269Z,4.50
2023-01-13T12:32:36.235Z,5.30
2023-01-13T12:35:25.978Z,4.50
2023-01-13T12:38:05.461Z,5.10
2023-01-13T12:40:49.275Z,6.00
2023-01-13T12:43:40.839Z,5.10
2023-01-13T12:46:53.388Z,4.60
2023-01-13T12:49:28.107Z,5.20
2023-01-13T12:52:18.830Z,6.00
2023-01-13T12:55:24.000Z,5.30
2023-01-13T12:58:27.667Z,4.60
2023-01-13T13:01:15.876Z,6.70
2023-01-13T13:04:12.586Z,5.60
2023-01-13T13:06:47.800Z,4.60
2023-01-13T13:09:28.130Z,4.30
2023-01-13T13:12:17.790Z,4.00
2023-01-13T13:15:07.941Z,7.50
2023-01-13T13:18:04.767Z,4.70
2023-01-13T13:21:04.228Z,5.40
2023-01-13T13:24:03.305Z,6.90
2023-01-13T13:26:47.134Z,5.80
2023-01-13T13:29:52.684Z,5.10
2023-01-13T13:32:56.217Z,5.10
2023-01-13T13:35:41.959Z,5.00
2023-01-13T13:38:48.829Z,7.00
2023-01-13T13:41:52.673Z,4.90
2023-01-13T13:44:47.333Z,5.70
2023-01-13T13:47:22.116Z,7.60
2023-01-13T13:49:56.575Z,8.50
2023-01-13T13:52:38.090Z,6.70
2023-01-13T13:55:17.800Z,7.60
2023-01-13T13:57:51.914Z,5.40
2023-01-13T14:00:28.333Z,7.30
2023-01-13T14:03:03.558Z,7.00
2023-01-13T14:05:37.053Z,8.70
2023-01-13T14:08:17.093Z,7.30
2023-01-13T14:10:49.987Z,8.00
2023-01-13T14:13:26.515Z,5.50
2023-01-13T14:16:01.687Z,5.20
2023-01-13T14:18:45.694Z,5.50
2023-01-13T14:21:26.025Z,6.70
2023-01-13T14:24:02.066Z,5.60
2023-01-13T14:26:38.205Z,5.60
2023-01-13T14:29:15.932Z,7.70
2023-01-13T14:31:50.137Z,6.30
2023-01-13T14:34:32.114Z,7.70
2023-01-13T14:37:23.070Z,7.10
2023-01-13T14:39:56.805Z,9.30
2023-01-13T14:42:31.959Z,8.70
2023-01-13T14:45:04.648Z,9.00
2023-01-13T14:47:37.176Z,6.90
2023-01-13T14:50:26.168Z,7.50
2023-01-13T14:53:00.995Z,7.30
2023-01-13T14:55:34.684Z,7.50
2023-01-13T15:01:30.131Z,7.60
2023-01-13T15:04:20.649Z,5.60
2023-01-13T15:06:58.200Z,7.50
2023-01-13T15:09:46.810Z,6.60
2023-01-13T15:12:31.043Z,7.60
2023-01-13T15:15:04.413Z,7.50
2023-01-13T15:17:37.371Z,8.10
2023-01-13T15:20:16.447Z,5.20
2023-01-13T15:22:48.589Z,6.60
2023-01-13T15:25:21.032Z,6.10
2023-01-13T15:27:54.581Z,6.50
2023-01-13T15:33:00.791Z,9.00
2023-01-13T15:35:33.033Z,5.90
2023-01-13T15:38:10.981Z,5.50
2023-01-13T15:40:46.207Z,5.20
2023-01-13T15:43:38.304Z,46.90
2023-01-13T15:46:41.026Z,11.80
2023-01-13T15:49:21.585Z,8.20
2023-01-13T15:51:57.434Z,8.10
2023-01-13T15:54:30.169Z,6.60
2023-01-13T15:57:02.447Z,7.20
2023-01-13T15:59:34.476Z,7.10
2023-01-13T16:02:11.241Z,6.50
2023-01-13T16:04:43.372Z,9.30
2023-01-13T16:07:19.181Z,7.40
2023-01-13T16:09:51.500Z,6.90
2023-01-13T16:12:23.681Z,6.00
2023-01-13T16:14:55.703Z,8.90
2023-01-13T16:17:30.379Z,7.70
2023-01-13T16:20:02.599Z,7.00
2023-01-13T16:22:34.770Z,9.10
2023-01-13T16:25:07.468Z,12.20
2023-01-13T16:27:39.735Z,11.10
2023-01-13T16:30:25.108Z,7.70
2023-01-13T16:32:58.473Z,14.00
2023-01-13T16:35:32.355Z,13.10
2023-01-13T16:38:05.028Z,10.00
2023-01-13T16:40:38.303Z,8.80
2023-01-13T16:43:13.357Z,12.40
2023-01-13T16:45:46.046Z,9.00
2023-01-13T16:48:22.933Z,9.70
2023-01-13T16:50:56.046Z,8.60
2023-01-13T16:53:28.211Z,8.30
2023-01-13T16:56:00.969Z,7.90
2023-01-13T16:58:33.729Z,9.50
2023-01-13T17:01:15.738Z,10.30
2023-01-13T17:03:51.904Z,10.40
2023-01-13T17:06:28.815Z,8.60
2023-01-13T17:09:08.588Z,9.80
2023-01-13T17:11:41.031Z,8.60
2023-01-13T17:14:18.498Z,8.80
2023-01-13T17:16:52.195Z,9.80
2023-01-13T17:19:26.001Z,9.30
2023-01-13T17:21:58.293Z,10.60
2023-01-13T17:24:33.249Z,9.40
2023-01-13T17:27:08.070Z,8.40
2023-01-13T17:29:42.351Z,10.70
2023-01-13T17:32:20.714Z,8.30
2023-01-13T17:34:54.991Z,8.30
2023-01-13T17:37:30.434Z,10.40
2023-01-13T17:40:03.179Z,8.60
2023-01-13T17:42:35.308Z,6.90
2023-01-13T17:45:11.560Z,10.20
2023-01-13T17:50:31.321Z,8.00
2023-01-13T17:53:06.208Z,8.80
2023-01-13T17:55:39.225Z,7.30
2023-01-13T17:58:11.377Z,7.50
2023-01-13T18:00:46.377Z,7.60
2023-01-13T18:03:21.963Z,8.00
2023-01-13T18:05:55.250Z,7.90
2023-01-13T18:08:29.998Z,8.40
2023-01-13T18:11:03.141Z,8.60
2023-01-13T18:13:36.711Z,9.20
2023-01-13T18:16:11.535Z,11.90
2023-01-13T18:18:45.822Z,9.10
2023-01-13T18:21:40.588Z,10.10
2023-01-13T18:24:34.076Z,10.80
2023-01-13T18:27:23.717Z,10.90
2023-01-13T18:29:58.689Z,9.20
2023-01-13T18:32:33.770Z,7.70
2023-01-13T18:35:10.702Z,10.60
2023-01-13T18:37:46.503Z,9.60
2023-01-13T18:40:25.619Z,9.00
2023-01-13T18:42:59.833Z,12.50
2023-01-13T18:45:33.783Z,10.90
2023-01-13T18:48:08.813Z,10.80
2023-01-13T18:50:42.242Z,9.70
2023-01-13T18:53:19.160Z,11.10
2023-01-13T18:55:56.950Z,10.20
2023-01-13T18:58:35.949Z,9.30
2023-01-13T19:01:11.677Z,11.50
2023-01-13T19:03:46.404Z,9.80
2023-01-13T19:06:22.958Z,9.60
2023-01-13T19:08:58.981Z,9.00
2023-01-13T19:11:32.711Z,13.90
2023-01-13T19:16:37.287Z,8.50
2023-01-13T19:19:22.523Z,12.60
2023-01-13T19:21:58.079Z,10.30
2023-01-13T19:24:31.760Z,9.60
2023-01-13T19:27:07.291Z,10.30
2023-01-13T19:29:50.168Z,9.40
2023-01-13T19:32:28.086Z,9.70
2023-01-13T19:35:01.482Z,9.60
2023-01-13T19:37:34.806Z,11.00
2023-01-13T19:40:09.633Z,11.00
2023-01-13T19:43:03.280Z,11.30
2023-01-13T19:45:36.766Z,12.40
2023-01-13T19:48:09.602Z,13.20
2023-01-13T19:50:42.496Z,14.00
2023-01-13T19:53:22.295Z,18.20
2023-01-13T19:56:04.857Z,15.90
2023-01-13T19:58:37.765Z,15.70
2023-01-13T20:01:12.669Z,15.20
2023-01-13T20:03:46.922Z,15.30
2023-01-13T20:06:20.513Z,14.60
2023-01-13T20:08:55.575Z,12.70
2023-01-13T20:11:33.472Z,13.60
2023-01-13T20:14:06.228Z,15.20
2023-01-13T20:16:39.087Z,12.80
2023-01-13T20:19:14.362Z,13.90
2023-01-13T20:21:48.663Z,14.30
2023-01-13T20:24:21.819Z,15.60
2023-01-13T20:26:59.774Z,14.90
2023-01-13T20:29:32.215Z,14.80
2023-01-13T20:32:04.932Z,14.40
2023-01-13T20:34:39.265Z,13.20
2023-01-13T20:37:14.546Z,14.60
2023-01-13T20:39:47.442Z,13.20
2023-01-13T20:42:32.301Z,14.40
2023-01-13T20:45:04.425Z,12.50
2023-01-13T20:47:36.767Z,11.60
2023-01-13T20:50:13.724Z,13.90
2023-01-13T20:52:47.942Z,13.20
2023-01-13T20:55:20.154Z,13.60
2023-01-13T20:57:54.037Z,17.80
2023-01-13T21:00:28.802Z,17.10
2023-01-13T21:03:01.080Z,16.40
2023-01-13T21:05:34.346Z,15.40
2023-01-13T21:08:06.840Z,14.00
2023-01-13T21:10:41.712Z,16.70
2023-01-13T21:13:33.016Z,18.30
2023-01-13T21:16:06.079Z,13.20
2023-01-13T21:18:57.427Z,12.40
2023-01-13T21:21:30.244Z,14.10
2023-01-13T21:24:02.259Z,12.40
2023-01-13T21:26:34.882Z,12.30
2023-01-13T21:29:07.618Z,15.00
2023-01-13T21:31:41.033Z,15.50
2023-01-13T21:34:13.908Z,11.70
2023-01-13T21:36:46.256Z,11.10
2023-01-13T21:39:18.566Z,12.10
2023-01-13T21:42:08.785Z,11.50
2023-01-13T21:44:58.257Z,10.10
2023-01-13T21:47:48.041Z,10.70
2023-01-13T21:50:21.930Z,10.10
2023-01-13T21:52:54.795Z,10.30
2023-01-13T21:55:29.729Z,10.90
2023-01-13T21:58:09.427Z,10.30
2023-01-13T22:00:42.799Z,11.60
2023-01-13T22:03:19.608Z,10.70
2023-01-13T22:05:58.139Z,10.50
2023-01-13T22:08:36.466Z,9.10
2023-01-13T22:11:13.355Z,11.70
2023-01-13T22:14:02.629Z,12.10
2023-01-13T22:16:36.900Z,11.60
2023-01-13T22:19:09.874Z,11.40
2023-01-13T22:21:42.542Z,11.20
2023-01-13T22:24:15.172Z,9.70
2023-01-13T22:26:47.488Z,10.60
2023-01-13T22:29:22.686Z,9.00
2023-01-13T22:31:54.983Z,9.80
2023-01-13T22:34:27.557Z,11.10
2023-01-13T22:37:00.105Z,9.30
2023-01-13T22:39:32.428Z,9.80
2023-01-13T22:42:05.335Z,10.20
2023-01-13T22:44:39.900Z,11.20
2023-01-13T22:47:11.987Z,9.80
2023-01-13T22:49:47.938Z,11.00
2023-01-13T22:52:20.837Z,9.10
2023-01-13T22:54:52.816Z,8.80
2023-01-13T22:57:24.908Z,8.70
2023-01-13T22:59:57.627Z,8.50
2023-01-13T23:02:34.523Z,8.70
2023-01-13T23:05:07.476Z,10.00
2023-01-13T23:07:40.833Z,8.60
2023-01-13T23:10:14.411Z,9.50
2023-01-13T23:15:18.135Z,9.80
2023-01-13T23:17:51.809Z,8.60
2023-01-13T23:22:54.719Z,9.00
2023-01-13T23:25:27.593Z,8.90
2023-01-13T23:27:59.935Z,10.40
2023-01-13T23:30:32.007Z,8.10
2023-01-13T23:33:04.477Z,10.30
2023-01-13T23:35:36.609Z,8.50
2023-01-13T23:38:08.765Z,9.90
2023-01-13T23:40:43.832Z,7.30
2023-01-13T23:43:16.090Z,9.40
2023-01-13T23:45:48.286Z,8.10
2023-01-13T23:48:20.455Z,9.50
2023-01-13T23:51:02.216Z,9.60
2023-01-13T23:53:39.199Z,10.10
2023-01-13T23:56:16.292Z,8.30
2023-01-13T23:58:52.479Z,8.90
